createdAt,value
2023-01-31T00:01:54.082Z,8.80
2023-01-31T00:04:21.853Z,7.50
2023-01-31T00:06:51.598Z,7.80
2023-01-31T00:09:19.872Z,8.30
2023-01-31T00:11:47.575Z,7.10
2023-01-31T00:14:19.308Z,7.80
2023-01-31T00:16:47.125Z,7.90
2023-01-31T00:19:14.846Z,7.80
2023-01-31T00:21:43.923Z,8.20
2023-01-31T00:24:13.207Z,7.70
2023-01-31T00:26:41.444Z,7.30
2023-01-31T00:29:10.080Z,7.60
2023-01-31T00:31:38.942Z,8.40
2023-01-31T00:34:07.511Z,7.80
2023-01-31T00:36:36.370Z,8.20
2023-01-31T00:39:06.421Z,7.80
2023-01-31T00:41:36.606Z,8.00
2023-01-31T00:44:06.417Z,8.70
2023-01-31T00:47:08.651Z,9.20
2023-01-31T00:49:36.930Z,8.40
2023-01-31T00:52:04.864Z,8.50
2023-01-31T00:54:32.674Z,8.90
2023-01-31T00:57:00.395Z,8.30
2023-01-31T00:59:28.259Z,8.80
2023-01-31T01:10:23.640Z,8.70
2023-01-31T01:12:51.438Z,7.70
2023-01-31T01:15:19.511Z,7.90
2023-01-31T01:17:47.273Z,8.50
2023-01-31T01:20:14.974Z,7.70
2023-01-31T01:22:42.735Z,7.90
2023-01-31T01:25:11.027Z,7.50
2023-01-31T01:27:38.736Z,8.00
2023-01-31T01:30:07.740Z,7.40
2023-01-31T01:32:36.417Z,7.30
2023-01-31T01:35:04.549Z,7.80
2023-01-31T01:37:33.085Z,7.20
2023-01-31T01:40:00.741Z,7.30
2023-01-31T01:42:34.494Z,6.90
2023-01-31T01:45:05.413Z,6.50
2023-01-31T01:47:55.820Z,7.70
2023-01-31T01:50:36.354Z,6.80
2023-01-31T01:53:24.608Z,6.50
2023-01-31T01:55:56.220Z,7.00
2023-01-31T01:58:27.773Z,6.70
2023-01-31T02:00:56.038Z,6.40
2023-01-31T02:03:23.782Z,6.10
2023-01-31T02:05:55.531Z,6.10
2023-01-31T02:08:25.446Z,6.20
2023-01-31T02:10:58.114Z,6.30
2023-01-31T02:13:26.088Z,7.20
2023-01-31T02:15:53.983Z,6.40
2023-01-31T02:18:24.506Z,6.80
2023-01-31T02:20:58.554Z,6.40
2023-01-31T02:23:48.760Z,6.00
2023-01-31T02:26:54.292Z,6.80
2023-01-31T02:29:41.641Z,5.80
2023-01-31T02:32:38.867Z,6.40
2023-01-31T02:35:16.705Z,6.50
2023-01-31T02:37:53.423Z,5.70
2023-01-31T02:40:39.550Z,6.00
2023-01-31T02:43:18.416Z,6.60
2023-01-31T02:46:10.687Z,6.40
2023-01-31T02:48:51.352Z,6.50
2023-01-31T02:51:23.212Z,6.60
2023-01-31T02:54:00.062Z,6.50
2023-01-31T02:56:31.240Z,5.80
2023-01-31T02:59:08.925Z,6.30
2023-01-31T03:01:39.670Z,6.50
2023-01-31T03:04:10.808Z,5.40
2023-01-31T03:06:54.566Z,5.60
2023-01-31T03:09:36.623Z,6.00
2023-01-31T03:12:38.508Z,5.90
2023-01-31T03:16:00.664Z,5.90
2023-01-31T03:18:35.029Z,5.80
2023-01-31T03:21:09.219Z,6.40
2023-01-31T03:23:39.109Z,6.40
2023-01-31T03:26:07.359Z,6.20
2023-01-31T03:28:37.185Z,6.10
2023-01-31T03:31:11.157Z,5.90
2023-01-31T03:33:42.470Z,5.30
2023-01-31T03:36:18.131Z,5.10
2023-01-31T03:39:01.869Z,6.60
2023-01-31T03:41:32.795Z,5.40
2023-01-31T03:44:07.648Z,5.30
2023-01-31T03:46:40.718Z,5.90
2023-01-31T03:49:10.884Z,6.10
2023-01-31T03:51:43.057Z,5.40
2023-01-31T03:54:18.796Z,5.40
2023-01-31T03:56:53.208Z,6.20
2023-01-31T03:59:33.250Z,5.60
2023-01-31T04:02:02.399Z,5.80
2023-01-31T04:04:53.867Z,5.60
2023-01-31T04:07:22.738Z,5.70
2023-01-31T04:09:50.644Z,5.90
2023-01-31T04:12:18.326Z,5.20
2023-01-31T04:14:46.077Z,5.50
2023-01-31T04:17:14.294Z,5.50
2023-01-31T04:19:42.026Z,5.90
2023-01-31T04:22:09.691Z,6.20
2023-01-31T04:24:37.347Z,5.60
2023-01-31T04:27:05.005Z,5.90
2023-01-31T04:29:33.150Z,5.40
2023-01-31T04:32:01.119Z,4.70
2023-01-31T04:34:28.866Z,4.80
2023-01-31T04:36:56.624Z,5.10
2023-01-31T04:39:24.592Z,5.60
2023-01-31T04:41:52.303Z,4.00
2023-01-31T04:44:20.020Z,4.80
2023-01-31T04:46:47.770Z,4.60
2023-01-31T04:49:15.615Z,4.10
2023-01-31T04:51:43.243Z,5.00
2023-01-31T04:54:11.119Z,4.30
2023-01-31T04:56:38.751Z,4.90
2023-01-31T04:59:06.425Z,4.30
2023-01-31T05:01:34.022Z,5.30
2023-01-31T05:04:01.847Z,4.90
2023-01-31T05:06:29.596Z,4.50
2023-01-31T05:09:01.648Z,4.90
2023-01-31T05:11:29.630Z,4.40
2023-01-31T05:13:57.332Z,4.30
2023-01-31T05:16:25.337Z,5.00
2023-01-31T05:18:53.038Z,4.60
2023-01-31T05:21:20.874Z,4.20
2023-01-31T05:23:48.844Z,4.40
2023-01-31T05:26:16.562Z,4.70
2023-01-31T05:28:44.424Z,5.00
2023-01-31T05:31:13.564Z,4.30
2023-01-31T05:33:43.038Z,4.90
2023-01-31T05:36:10.920Z,4.90
2023-01-31T05:38:39.671Z,4.80
2023-01-31T05:41:07.328Z,4.80
2023-01-31T05:43:36.420Z,5.00
2023-01-31T05:46:05.025Z,4.40
2023-01-31T05:48:33.517Z,5.10
2023-01-31T05:51:01.356Z,5.10
2023-01-31T05:53:29.455Z,4.30
2023-01-31T05:55:57.108Z,4.60
2023-01-31T05:58:24.902Z,4.20
2023-01-31T06:00:56.548Z,4.50
2023-01-31T06:03:24.337Z,4.60
2023-01-31T06:05:52.103Z,4.20
2023-01-31T06:08:19.741Z,4.70
2023-01-31T06:10:47.439Z,5.10
2023-01-31T06:13:15.403Z,4.50
2023-01-31T06:15:43.985Z,4.70
2023-01-31T06:18:11.985Z,5.90
2023-01-31T06:20:39.679Z,5.10
2023-01-31T06:23:07.415Z,5.50
2023-01-31T06:25:35.068Z,4.80
2023-01-31T06:28:02.791Z,5.50
2023-01-31T06:30:30.928Z,6.00
2023-01-31T06:33:02.714Z,5.60
2023-01-31T06:35:30.613Z,6.40
2023-01-31T06:37:58.368Z,5.70
2023-01-31T06:40:26.234Z,6.40
2023-01-31T06:42:53.923Z,7.50
2023-01-31T06:45:21.919Z,7.60
2023-01-31T06:47:49.778Z,7.40
2023-01-31T06:50:18.080Z,6.90
2023-01-31T06:52:45.898Z,6.10
2023-01-31T06:55:13.677Z,6.70
2023-01-31T06:57:48.818Z,6.00
2023-01-31T07:00:18.505Z,6.10
2023-01-31T07:02:47.103Z,5.60
2023-01-31T07:05:15.240Z,6.30
2023-01-31T07:07:42.968Z,6.20
2023-01-31T07:10:11.353Z,6.50
2023-01-31T07:12:40.158Z,6.20
2023-01-31T07:15:09.256Z,5.80
2023-01-31T07:17:37.248Z,6.20
2023-01-31T07:20:05.494Z,6.60
2023-01-31T07:22:33.396Z,6.40
2023-01-31T07:25:01.118Z,6.20
2023-01-31T07:27:28.815Z,6.10
2023-01-31T07:29:56.511Z,6.40
2023-01-31T07:32:28.850Z,7.90
2023-01-31T07:34:56.494Z,6.70
2023-01-31T07:37:24.275Z,6.60
2023-01-31T07:39:51.967Z,6.90
2023-01-31T07:42:19.655Z,7.70
2023-01-31T07:44:47.381Z,7.00
2023-01-31T07:47:15.104Z,6.60
2023-01-31T07:49:42.776Z,6.90
2023-01-31T07:52:10.383Z,7.50
2023-01-31T07:54:38.077Z,6.40
2023-01-31T07:57:05.822Z,7.60
2023-01-31T07:59:33.629Z,7.80
2023-01-31T08:02:20.130Z,8.10
2023-01-31T08:04:48.024Z,7.80
2023-01-31T08:07:15.684Z,7.60
2023-01-31T08:09:46.066Z,7.20
2023-01-31T08:12:13.692Z,7.00
2023-01-31T08:14:41.389Z,7.80
2023-01-31T08:17:09.951Z,7.50
2023-01-31T08:19:38.182Z,7.80
2023-01-31T08:22:06.130Z,7.00
2023-01-31T08:24:33.784Z,5.90
2023-01-31T08:27:01.419Z,7.10
2023-01-31T08:29:29.510Z,7.20
2023-01-31T08:31:57.379Z,7.10
2023-01-31T08:34:25.192Z,6.70
2023-01-31T08:36:52.907Z,7.50
2023-01-31T08:39:20.668Z,6.50
2023-01-31T08:41:48.553Z,6.40
2023-01-31T08:44:16.453Z,6.10
2023-01-31T08:46:45.663Z,6.50
2023-01-31T08:49:13.519Z,6.60
2023-01-31T08:51:41.494Z,6.20
2023-01-31T08:54:10.500Z,6.10
2023-01-31T08:56:38.194Z,6.60
2023-01-31T08:59:05.853Z,5.60
2023-01-31T09:01:35.487Z,6.40
2023-01-31T09:04:03.284Z,5.80
2023-01-31T09:06:31.176Z,5.60
2023-01-31T09:08:59.059Z,4.80
2023-01-31T09:11:28.952Z,5.20
2023-01-31T09:13:57.169Z,5.70
2023-01-31T09:16:25.001Z,5.20
2023-01-31T09:18:53.414Z,5.10
2023-01-31T09:21:22.037Z,5.90
2023-01-31T09:23:59.157Z,5.80
2023-01-31T09:26:27.008Z,5.90
2023-01-31T09:28:56.192Z,5.90
2023-01-31T09:31:23.928Z,5.20
2023-01-31T09:33:51.626Z,4.70
2023-01-31T09:36:21.735Z,5.10
2023-01-31T09:38:54.456Z,4.90
2023-01-31T09:41:36.412Z,5.00
2023-01-31T09:44:21.139Z,4.30
2023-01-31T09:47:13.086Z,3.80
2023-01-31T09:49:54.192Z,4.40
2023-01-31T09:52:22.577Z,4.00
2023-01-31T09:54:50.270Z,4.60
2023-01-31T09:57:33.054Z,3.80
2023-01-31T10:00:18.850Z,3.40
2023-01-31T10:03:18.700Z,3.90
2023-01-31T10:05:53.080Z,4.20
2023-01-31T10:08:33.153Z,3.70
2023-01-31T10:11:03.255Z,4.80
2023-01-31T10:13:36.990Z,4.30
2023-01-31T10:16:31.723Z,3.90
2023-01-31T10:19:06.626Z,3.80
2023-01-31T10:21:50.612Z,4.20
2023-01-31T10:24:30.415Z,4.30
2023-01-31T10:27:06.369Z,4.50
2023-01-31T10:29:40.795Z,5.10
2023-01-31T10:32:27.113Z,4.90
2023-01-31T10:34:59.066Z,5.00
2023-01-31T10:37:37.670Z,5.20
2023-01-31T10:40:38.098Z,5.80
2023-01-31T10:43:39.200Z,5.70
2023-01-31T10:46:16.954Z,6.00
2023-01-31T10:48:47.448Z,5.80
2023-01-31T10:51:28.307Z,6.10
2023-01-31T10:54:14.063Z,6.30
2023-01-31T10:56:43.537Z,6.20
2023-01-31T10:59:23.670Z,5.90
2023-01-31T11:01:51.993Z,5.10
2023-01-31T11:04:40.900Z,6.30
2023-01-31T11:07:09.708Z,7.00
2023-01-31T11:09:40.598Z,5.80
2023-01-31T11:12:08.569Z,5.60
2023-01-31T11:14:36.886Z,5.70
2023-01-31T11:17:16.427Z,5.50
2023-01-31T11:19:47.032Z,6.10
2023-01-31T11:22:31.788Z,6.30
2023-01-31T11:25:01.646Z,5.10
2023-01-31T11:27:36.338Z,5.70
2023-01-31T11:30:06.233Z,5.80
2023-01-31T11:32:36.456Z,6.60
2023-01-31T11:35:23.824Z,5.70
2023-01-31T11:37:57.221Z,5.50
2023-01-31T11:40:35.950Z,5.50
2023-01-31T11:43:04.582Z,4.80
2023-01-31T11:45:34.548Z,8.30
2023-01-31T11:48:20.034Z,8.30
2023-01-31T11:50:54.316Z,7.50
2023-01-31T11:53:29.815Z,7.00
2023-01-31T11:56:01.303Z,6.00
2023-01-31T11:58:35.668Z,6.30
2023-01-31T12:01:14.960Z,6.30
2023-01-31T12:04:01.428Z,5.40
2023-01-31T12:06:37.913Z,5.30
2023-01-31T12:09:23.920Z,5.00
2023-01-31T12:11:57.450Z,5.60
2023-01-31T12:14:37.427Z,5.00
2023-01-31T12:17:05.633Z,6.20
2023-01-31T12:19:43.831Z,4.80
2023-01-31T12:22:31.692Z,5.70
2023-01-31T12:25:17.764Z,5.40
2023-01-31T12:27:51.199Z,5.30
2023-01-31T12:30:32.003Z,4.70
2023-01-31T12:33:05.496Z,4.50
2023-01-31T12:35:48.319Z,4.70
2023-01-31T12:38:31.395Z,5.10
2023-01-31T12:41:21.339Z,5.20
2023-01-31T12:44:01.017Z,5.00
2023-01-31T12:46:54.787Z,4.60
2023-01-31T12:50:00.077Z,4.90
2023-01-31T12:52:42.097Z,4.00
2023-01-31T12:55:17.877Z,3.40
2023-01-31T12:58:02.775Z,4.10
2023-01-31T13:00:42.271Z,15.70
2023-01-31T13:03:15.724Z,20.50
2023-01-31T13:06:06.046Z,71.20
2023-01-31T13:08:35.524Z,15.20
2023-01-31T13:11:16.232Z,16.90
2023-01-31T13:14:00.244Z,34.70
2023-01-31T13:16:43.361Z,36.70
2023-01-31T13:19:32.353Z,20.80
2023-01-31T13:22:03.363Z,12.40
2023-01-31T13:24:40.189Z,12.80
2023-01-31T13:27:24.889Z,9.80
2023-01-31T13:30:00.127Z,9.80
2023-01-31T13:32:27.868Z,4.90
2023-01-31T13:35:18.739Z,5.00
2023-01-31T13:37:48.652Z,5.10
2023-01-31T13:40:25.363Z,4.90
2023-01-31T13:42:54.703Z,4.80
2023-01-31T13:45:43.078Z,5.60
2023-01-31T13:48:33.828Z,6.00
2023-01-31T13:51:10.882Z,4.20
2023-01-31T13:53:45.908Z,4.30
2023-01-31T13:56:20.881Z,3.80
2023-01-31T13:58:49.589Z,7.50
2023-01-31T14:01:24.732Z,3.70
2023-01-31T14:04:10.870Z,8.40
2023-01-31T14:07:06.588Z,15.90
2023-01-31T14:09:45.646Z,7.80
2023-01-31T14:12:17.121Z,6.40
2023-01-31T14:14:46.101Z,5.90
2023-01-31T14:17:21.103Z,5.80
2023-01-31T14:19:51.856Z,4.70
2023-01-31T14:22:33.285Z,6.50
2023-01-31T14:25:07.089Z,6.80
2023-01-31T14:27:42.845Z,4.70
2023-01-31T14:30:27.340Z,8.10
2023-01-31T14:33:23.221Z,11.00
2023-01-31T14:36:13.825Z,11.60
2023-01-31T14:39:04.399Z,24.50
2023-01-31T14:41:39.352Z,50.80
2023-01-31T14:44:35.557Z,31.80
2023-01-31T14:47:09.033Z,33.10
2023-01-31T14:49:55.501Z,20.50
2023-01-31T14:52:33.256Z,15.60
2023-01-31T14:55:31.208Z,15.30
2023-01-31T14:58:01.732Z,14.00
2023-01-31T15:00:38.269Z,9.40
2023-01-31T15:03:09.310Z,11.10
2023-01-31T15:05:37.549Z,11.90
2023-01-31T15:08:25.145Z,8.80
2023-01-31T15:11:30.465Z,7.00
2023-01-31T15:14:34.150Z,12.80
2023-01-31T15:17:32.073Z,7.40
2023-01-31T15:20:20.686Z,6.60
2023-01-31T15:22:48.987Z,13.80
2023-01-31T15:25:32.999Z,9.00
2023-01-31T15:28:01.322Z,16.80
2023-01-31T15:30:30.245Z,21.30
2023-01-31T15:33:00.894Z,14.00
2023-01-31T15:35:35.027Z,35.10
2023-01-31T15:38:11.907Z,13.20
2023-01-31T15:40:39.595Z,10.80
2023-01-31T15:43:27.490Z,17.30
2023-01-31T15:45:55.386Z,17.20
2023-01-31T15:48:23.170Z,14.00
2023-01-31T15:50:59.640Z,45.20
2023-01-31T15:53:29.940Z,40.60
2023-01-31T15:56:02.473Z,19.30
2023-01-31T15:58:30.982Z,14.10
2023-01-31T16:01:00.295Z,16.30
2023-01-31T16:03:30.693Z,16.90
2023-01-31T16:05:59.827Z,15.30
2023-01-31T16:08:39.669Z,15.00
2023-01-31T16:11:09.707Z,20.90
2023-01-31T16:13:38.738Z,50.60
2023-01-31T16:16:10.410Z,21.00
2023-01-31T16:18:38.604Z,16.00
2023-01-31T16:21:24.715Z,15.20
2023-01-31T16:24:10.933Z,12.80
2023-01-31T16:27:09.049Z,13.30
2023-01-31T16:29:46.288Z,13.40
2023-01-31T16:32:24.790Z,13.20
2023-01-31T16:35:14.446Z,14.10
2023-01-31T16:37:43.576Z,16.10
2023-01-31T16:40:17.282Z,13.80
2023-01-31T16:42:45.153Z,13.20
2023-01-31T16:45:32.684Z,13.60
2023-01-31T16:48:34.020Z,14.90
2023-01-31T16:51:28.556Z,14.10
2023-01-31T16:54:15.518Z,15.40
2023-01-31T16:56:44.511Z,14.60
2023-01-31T16:59:34.385Z,16.90
2023-01-31T17:02:13.739Z,17.60
2023-01-31T17:04:42.252Z,22.30
2023-01-31T17:07:17.447Z,21.10
2023-01-31T17:09:46.918Z,25.90
2023-01-31T17:12:19.192Z,31.40
2023-01-31T17:14:47.195Z,24.20
2023-01-31T17:17:20.597Z,24.20
2023-01-31T17:19:49.582Z,24.80
2023-01-31T17:22:17.454Z,26.70
2023-01-31T17:24:46.802Z,23.90
2023-01-31T17:27:16.096Z,30.90
2023-01-31T17:29:45.715Z,26.00
2023-01-31T17:32:19.294Z,24.10
2023-01-31T17:34:48.803Z,24.60
2023-01-31T17:37:20.721Z,22.90
2023-01-31T17:39:51.821Z,22.60
2023-01-31T17:42:21.325Z,24.20
2023-01-31T17:44:49.076Z,22.60
2023-01-31T17:47:17.889Z,25.10
2023-01-31T17:49:45.790Z,22.60
2023-01-31T17:52:13.642Z,23.50
2023-01-31T17:54:41.358Z,23.80
2023-01-31T17:57:09.179Z,24.90
2023-01-31T17:59:37.348Z,24.20
2023-01-31T18:02:05.230Z,24.60
2023-01-31T18:04:33.134Z,24.30
2023-01-31T18:07:00.867Z,24.10
2023-01-31T18:09:28.568Z,25.70
2023-01-31T18:11:56.358Z,44.20
2023-01-31T18:14:24.156Z,41.00
2023-01-31T18:16:54.157Z,25.90
2023-01-31T18:19:22.156Z,21.30
2023-01-31T18:21:54.965Z,22.90
2023-01-31T18:24:23.385Z,26.40
2023-01-31T18:26:51.100Z,27.00
2023-01-31T18:29:23.864Z,40.40
2023-01-31T18:31:56.324Z,36.20
2023-01-31T18:34:24.877Z,25.30
2023-01-31T18:36:52.540Z,21.80
2023-01-31T18:39:20.354Z,18.10
2023-01-31T18:41:48.032Z,20.30
2023-01-31T18:44:15.728Z,20.00
2023-01-31T18:46:43.456Z,20.00
2023-01-31T18:49:11.259Z,19.50
2023-01-31T18:51:39.509Z,18.90
2023-01-31T18:54:08.727Z,18.70
2023-01-31T18:56:36.541Z,20.40
2023-01-31T18:59:04.311Z,22.80
2023-01-31T19:01:32.090Z,20.90
2023-01-31T19:03:59.830Z,21.80
2023-01-31T19:06:30.118Z,22.50
2023-01-31T19:08:58.284Z,20.70
2023-01-31T19:11:27.867Z,22.30
2023-01-31T19:13:56.045Z,22.40
2023-01-31T19:16:26.590Z,22.30
2023-01-31T19:18:57.559Z,24.30
2023-01-31T19:21:31.260Z,32.40
2023-01-31T19:24:01.312Z,23.90
2023-01-31T19:26:29.865Z,26.50
2023-01-31T19:28:58.761Z,23.70
2023-01-31T19:31:28.159Z,25.70
2023-01-31T19:33:57.843Z,24.10
2023-01-31T19:36:29.286Z,22.80
2023-01-31T19:38:58.320Z,24.50
2023-01-31T19:41:27.234Z,26.20
2023-01-31T19:43:56.798Z,24.90
2023-01-31T19:46:27.146Z,24.70
2023-01-31T19:48:58.870Z,22.80
2023-01-31T19:51:26.882Z,24.40
2023-01-31T19:53:58.893Z,24.10
2023-01-31T19:56:27.510Z,23.10
2023-01-31T19:58:55.561Z,22.30
2023-01-31T20:01:23.436Z,23.90
2023-01-31T20:03:51.351Z,22.50
2023-01-31T20:06:21.660Z,22.40
2023-01-31T20:08:54.549Z,26.40
2023-01-31T20:11:23.906Z,23.10
2023-01-31T20:13:52.506Z,22.10
2023-01-31T20:16:21.474Z,22.20
2023-01-31T20:18:51.192Z,21.50
2023-01-31T20:21:20.438Z,21.90
2023-01-31T20:23:49.153Z,21.10
2023-01-31T20:26:18.358Z,23.30
2023-01-31T20:28:46.256Z,21.80
2023-01-31T20:31:15.611Z,21.60
2023-01-31T20:33:43.361Z,22.10
2023-01-31T20:36:11.426Z,21.10
2023-01-31T20:38:39.977Z,22.90
2023-01-31T20:41:09.016Z,20.50
2023-01-31T20:43:37.608Z,20.30
2023-01-31T20:46:13.155Z,20.10
2023-01-31T20:48:42.809Z,19.00
2023-01-31T20:51:11.212Z,18.10
2023-01-31T20:53:38.988Z,18.50
2023-01-31T20:56:11.799Z,17.80
2023-01-31T20:58:42.488Z,18.60
2023-01-31T21:01:11.044Z,18.90
2023-01-31T21:03:39.001Z,18.80
2023-01-31T21:06:07.604Z,20.30
2023-01-31T21:08:35.871Z,21.40
2023-01-31T21:11:07.234Z,25.50
2023-01-31T21:13:35.112Z,22.70
2023-01-31T21:16:05.352Z,19.90
2023-01-31T21:18:35.404Z,20.10
2023-01-31T21:21:09.055Z,21.00
2023-01-31T21:23:38.310Z,21.70
2023-01-31T21:26:08.124Z,25.20
2023-01-31T21:28:36.601Z,30.60
2023-01-31T21:31:07.709Z,28.30
2023-01-31T21:33:36.366Z,31.80
2023-01-31T21:36:08.862Z,27.60
2023-01-31T21:38:37.333Z,28.80
2023-01-31T21:41:24.728Z,27.30
2023-01-31T21:43:52.843Z,26.80
2023-01-31T21:46:20.972Z,27.60
2023-01-31T21:48:48.811Z,24.10
2023-01-31T21:51:17.699Z,26.00
2023-01-31T21:53:46.246Z,25.50
2023-01-31T21:56:16.545Z,23.50
2023-01-31T21:58:44.834Z,25.00
2023-01-31T22:01:19.541Z,25.40
2023-01-31T22:03:49.644Z,27.70
2023-01-31T22:06:21.013Z,25.30
2023-01-31T22:08:56.901Z,26.00
2023-01-31T22:11:25.037Z,28.10
2023-01-31T22:13:55.979Z,28.60
2023-01-31T22:16:24.131Z,25.50
2023-01-31T22:18:52.686Z,26.90
2023-01-31T22:21:26.425Z,26.20
2023-01-31T22:23:56.145Z,25.20
2023-01-31T22:26:32.156Z,23.60
2023-01-31T22:29:02.354Z,23.20
2023-01-31T22:31:30.589Z,21.10
2023-01-31T22:34:00.231Z,20.60
2023-01-31T22:36:28.121Z,20.80
2023-01-31T22:38:56.006Z,22.20
2023-01-31T22:41:23.747Z,22.30
2023-01-31T22:43:52.344Z,23.10
2023-01-31T22:46:23.364Z,26.00
2023-01-31T22:48:51.769Z,24.20
2023-01-31T22:51:25.749Z,25.00
2023-01-31T22:53:55.200Z,23.10
2023-01-31T22:56:29.053Z,24.00
2023-01-31T22:59:01.778Z,22.70
2023-01-31T23:01:32.399Z,21.70
2023-01-31T23:04:01.861Z,20.20
2023-01-31T23:06:30.054Z,20.80
2023-01-31T23:08:58.168Z,19.90
2023-01-31T23:11:26.722Z,20.40
2023-01-31T23:13:54.520Z,18.30
2023-01-31T23:16:43.434Z,17.70
2023-01-31T23:19:11.793Z,15.50
2023-01-31T23:21:43.100Z,13.90
2023-01-31T23:24:11.984Z,13.60
2023-01-31T23:26:39.785Z,9.60
2023-01-31T23:29:07.628Z,8.00
2023-01-31T23:31:35.772Z,7.20
2023-01-31T23:34:05.996Z,7.10
2023-01-31T23:36:33.700Z,7.00
2023-01-31T23:39:01.396Z,7.00
2023-01-31T23:41:29.079Z,6.60
2023-01-31T23:43:56.710Z,7.30
2023-01-31T23:46:24.361Z,7.30
2023-01-31T23:48:52.012Z,7.70
2023-01-31T23:51:19.695Z,7.80
2023-01-31T23:53:47.322Z,7.60
2023-01-31T23:56:15.000Z,7.50
2023-01-31T23:58:42.664Z,7.60
